KMML/MML METAR and TAF weather

Enter ICAO airport designator
Station Type Date Time Source
KMML METAR 2022/01/26 07:56 UTC NOAA

KMML 260756Z AUTO 18007KT 10SM CLR M23/M26 A3034 RMK AO2 SLP315 T12281256 FZRANO


Station Type Date Time Source
KMML Decoded METAR 2022/01/26 07:56 UTC NOAA

Marshall, Southwest Minnesota Regional Airport - Marshall/Ryan Field, MN, United States (KMML) 44-27N 095-49W
Jan 26, 2022 - 02:56 AM EST / 2022.01.26 0756 UTC
Wind: from the S (180 degrees) at 8 MPH (7 KT):0
Visibility: 10 mile(s):0
Sky conditions: clear
Temperature: -9.0 F (-22.8 C)
Windchill: -25 F (-32 C):2
Dew Point: -14.1 F (-25.6 C)
Relative Humidity: 77%
Pressure (altimeter): 30.34 in. Hg (1027 hPa)
ob: KMML 260756Z AUTO 18007KT 10SM CLR M23/M26 A3034 RMK AO2 SLP315 T12281256 FZRANO
cycle: 8

Station Type Date Time Source
KMML TAF UTC NOAA

Error!

Example: see airport list